PWSweather.com
Personal Weather Stations
Station Observations
WXGLH1124
Southern Oaks, Indianapolis, IN 46217

Southern OaksIndianapolis, IN 46217

Lat: 39.65113, Lon: -86.16866

Elevation: 720

Station Type: Vantage Pro2

High Low Average
Temperature 16.3°F-8.7°C 5.6°F-14.7°C 11.7°F-11.3°C
Dew Point 7.4°F-13.7°C -1.5°F-18.6°C 3.0°F-16.1°C
Winds 7.0 mph 11.3 kmh Calm Calm 1.0 mph S1.6 kmh S
Wind Gusts 11.0 mph17.7 kmh -- 3.0 mph4.8 kmh
Humidity 87% 48% 68%
Pressure 30.69 in1039.3 mb 30.50 in1032.8 mb -
Precipitation 0.00 in0.0 mm - -
Hour Temp Dew Point Humidity Winds Wind Gusts Pressure Precip Precip Rate Daily Precip Total
12:05 AM 12.0°F-11.1°C 7.6°F-13.6°C 82% 3.0 mph NNW4.8 kmh NNW 5.0 mph8.0 kmh 30.48 in1032.2 mb 0.00 in0.0 mm 0.00 in0.0 mm 0.00 in0.0 mm
12:09 AM 12.1°F-11.1°C 7.7°F-13.5°C 82% 1.0 mph NNW1.6 kmh NNW 3.0 mph4.8 kmh 30.48 in1032.2 mb 0.00 in0.0 mm 0.00 in0.0 mm 0.00 in0.0 mm
12:15 AM 12.2°F-11.0°C 7.8°F-13.4°C 82% 2.0 mph N3.2 kmh N 4.0 mph6.4 kmh 30.49 in1032.5 mb 0.00 in0.0 mm 0.00 in0.0 mm 0.00 in0.0 mm
12:20 AM 12.2°F-11.0°C 7.5°F-13.6°C 81% 2.0 mph NNW3.2 kmh NNW 4.0 mph6.4 kmh 30.49 in1032.5 mb 0.00 in0.0 mm 0.00 in0.0 mm 0.00 in0.0 mm
12:25 AM 12.2°F-11.0°C 7.5°F-13.6°C 81% Calm Calm 1.0 mph1.6 kmh 30.49 in1032.5 mb 0.00 in0.0 mm 0.00 in0.0 mm 0.00 in0.0 mm
12:30 AM 12.1°F-11.1°C 7.4°F-13.7°C 81% Calm Calm -- 30.49 in1032.5 mb 0.00 in0.0 mm 0.00 in0.0 mm 0.00 in0.0 mm
12:35 AM 12.0°F-11.1°C 7.3°F-13.7°C 81% Calm Calm -- 30.49 in1032.5 mb 0.00 in0.0 mm 0.00 in0.0 mm 0.00 in0.0 mm
12:40 AM 11.9°F-11.2°C 7.2°F-13.8°C 81% Calm Calm -- 30.50 in1032.8 mb 0.00 in0.0 mm 0.00 in0.0 mm 0.00 in0.0 mm
12:45 AM 11.8°F-11.2°C 7.1°F-13.8°C 81% Calm Calm -- 30.50 in1032.8 mb 0.00 in0.0 mm 0.00 in0.0 mm 0.00 in0.0 mm
12:49 AM 11.6°F-11.3°C 6.9°F-13.9°C 81% Calm Calm -- 30.50 in1032.8 mb 0.00 in0.0 mm 0.00 in0.0 mm 0.00 in0.0 mm
12:54 AM 11.4°F-11.4°C 6.7°F-14.1°C 81% Calm Calm -- 30.50 in1032.8 mb 0.00 in0.0 mm 0.00 in0.0 mm 0.00 in0.0 mm
01:00 AM 11.2°F-11.6°C 6.5°F-14.2°C 81% Calm Calm -- 30.51 in1033.2 mb 0.00 in0.0 mm 0.00 in0.0 mm 0.00 in0.0 mm
01:05 AM 10.9°F-11.7°C 6.2°F-14.3°C 81% Calm Calm -- 30.51 in1033.2 mb 0.00 in0.0 mm 0.00 in0.0 mm 0.00 in0.0 mm
01:09 AM 10.8°F-11.8°C 6.4°F-14.2°C 82% Calm Calm -- 30.51 in1033.2 mb 0.00 in0.0 mm 0.00 in0.0 mm 0.00 in0.0 mm
01:15 AM 10.7°F-11.8°C 6.6°F-14.1°C 83% Calm Calm -- 30.50 in1032.8 mb 0.00 in0.0 mm 0.00 in0.0 mm 0.00 in0.0 mm
01:20 AM 10.6°F-11.9°C 6.5°F-14.2°C 83% Calm Calm -- 30.50 in1032.8 mb 0.00 in0.0 mm 0.00 in0.0 mm 0.00 in0.0 mm
01:25 AM 10.5°F-11.9°C 6.4°F-14.2°C 83% Calm Calm -- 30.50 in1032.8 mb 0.00 in0.0 mm 0.00 in0.0 mm 0.00 in0.0 mm
01:30 AM 10.5°F-11.9°C 6.4°F-14.2°C 83% Calm Calm -- 30.50 in1032.8 mb 0.00 in0.0 mm 0.00 in0.0 mm 0.00 in0.0 mm
01:34 AM 10.5°F-11.9°C 6.4°F-14.2°C 83% Calm Calm -- 30.50 in1032.8 mb 0.00 in0.0 mm 0.00 in0.0 mm 0.00 in0.0 mm
01:40 AM 10.5°F-11.9°C 6.6°F-14.1°C 84% Calm Calm -- 30.50 in1032.8 mb 0.00 in0.0 mm 0.00 in0.0 mm 0.00 in0.0 mm
01:45 AM 10.5°F-11.9°C 6.4°F-14.2°C 83% Calm Calm -- 30.51 in1033.2 mb 0.00 in0.0 mm 0.00 in0.0 mm 0.00 in0.0 mm
01:50 AM 10.5°F-11.9°C 6.6°F-14.1°C 84% Calm Calm -- 30.51 in1033.2 mb 0.00 in0.0 mm 0.00 in0.0 mm 0.00 in0.0 mm
01:55 AM 10.4°F-12.0°C 6.3°F-14.3°C 83% Calm Calm -- 30.51 in1033.2 mb 0.00 in0.0 mm 0.00 in0.0 mm 0.00 in0.0 mm
02:00 AM 10.3°F-12.1°C 6.2°F-14.3°C 83% Calm Calm -- 30.51 in1033.2 mb 0.00 in0.0 mm 0.00 in0.0 mm 0.00 in0.0 mm
02:05 AM 10.1°F-12.2°C 6.0°F-14.4°C 83% Calm Calm -- 30.50 in1032.8 mb 0.00 in0.0 mm 0.00 in0.0 mm 0.00 in0.0 mm
02:10 AM 9.9°F-12.3°C 5.8°F-14.6°C 83% Calm Calm -- 30.50 in1032.8 mb 0.00 in0.0 mm 0.00 in0.0 mm 0.00 in0.0 mm
02:15 AM 9.8°F-12.3°C 5.7°F-14.6°C 83% Calm Calm -- 30.51 in1033.2 mb 0.00 in0.0 mm 0.00 in0.0 mm 0.00 in0.0 mm
02:20 AM 9.6°F-12.4°C 5.5°F-14.7°C 83% Calm Calm -- 30.51 in1033.2 mb 0.00 in0.0 mm 0.00 in0.0 mm 0.00 in0.0 mm
02:24 AM 9.6°F-12.4°C 5.5°F-14.7°C 83% Calm Calm -- 30.51 in1033.2 mb 0.00 in0.0 mm 0.00 in0.0 mm 0.00 in0.0 mm
02:30 AM 9.5°F-12.5°C 5.7°F-14.6°C 84% Calm Calm -- 30.51 in1033.2 mb 0.00 in0.0 mm 0.00 in0.0 mm 0.00 in0.0 mm
02:35 AM 9.5°F-12.5°C 5.7°F-14.6°C 84% Calm Calm -- 30.51 in1033.2 mb 0.00 in0.0 mm 0.00 in0.0 mm 0.00 in0.0 mm
02:40 AM 9.5°F-12.5°C 5.7°F-14.6°C 84% Calm Calm -- 30.51 in1033.2 mb 0.00 in0.0 mm 0.00 in0.0 mm 0.00 in0.0 mm
02:45 AM 9.5°F-12.5°C 5.7°F-14.6°C 84% Calm Calm -- 30.51 in1033.2 mb 0.00 in0.0 mm 0.00 in0.0 mm 0.00 in0.0 mm
02:49 AM 9.6°F-12.4°C 5.8°F-14.6°C 84% Calm Calm -- 30.51 in1033.2 mb 0.00 in0.0 mm 0.00 in0.0 mm 0.00 in0.0 mm
02:55 AM 9.6°F-12.4°C 5.8°F-14.6°C 84% Calm Calm -- 30.51 in1033.2 mb 0.00 in0.0 mm 0.00 in0.0 mm 0.00 in0.0 mm
03:00 AM 9.6°F-12.4°C 5.8°F-14.6°C 84% Calm Calm -- 30.51 in1033.2 mb 0.00 in0.0 mm 0.00 in0.0 mm 0.00 in0.0 mm
03:05 AM 9.5°F-12.5°C 5.7°F-14.6°C 84% Calm Calm -- 30.51 in1033.2 mb 0.00 in0.0 mm 0.00 in0.0 mm 0.00 in0.0 mm
03:10 AM 9.2°F-12.7°C 5.4°F-14.8°C 84% Calm Calm -- 30.51 in1033.2 mb 0.00 in0.0 mm 0.00 in0.0 mm 0.00 in0.0 mm
03:15 AM 9.1°F-12.7°C 5.3°F-14.8°C 84% Calm Calm -- 30.51 in1033.2 mb 0.00 in0.0 mm 0.00 in0.0 mm 0.00 in0.0 mm
03:19 AM 9.0°F-12.8°C 5.2°F-14.9°C 84% Calm Calm -- 30.51 in1033.2 mb 0.00 in0.0 mm 0.00 in0.0 mm 0.00 in0.0 mm
03:25 AM 8.9°F-12.8°C 5.1°F-14.9°C 84% Calm Calm -- 30.51 in1033.2 mb 0.00 in0.0 mm 0.00 in0.0 mm 0.00 in0.0 mm
03:30 AM 8.7°F-12.9°C 4.9°F-15.1°C 84% Calm Calm -- 30.52 in1033.5 mb 0.00 in0.0 mm 0.00 in0.0 mm 0.00 in0.0 mm
03:35 AM 8.6°F-13.0°C 4.8°F-15.1°C 84% Calm Calm -- 30.52 in1033.5 mb 0.00 in0.0 mm 0.00 in0.0 mm 0.00 in0.0 mm
03:40 AM 8.5°F-13.1°C 4.7°F-15.2°C 84% Calm Calm -- 30.52 in1033.5 mb 0.00 in0.0 mm 0.00 in0.0 mm 0.00 in0.0 mm
03:45 AM 8.3°F-13.2°C 4.5°F-15.3°C 84% Calm Calm -- 30.52 in1033.5 mb 0.00 in0.0 mm 0.00 in0.0 mm 0.00 in0.0 mm
03:50 AM 8.2°F-13.2°C 4.4°F-15.3°C 84% Calm Calm -- 30.52 in1033.5 mb 0.00 in0.0 mm 0.00 in0.0 mm 0.00 in0.0 mm
03:55 AM 8.1°F-13.3°C 4.3°F-15.4°C 84% Calm Calm -- 30.53 in1033.9 mb 0.00 in0.0 mm 0.00 in0.0 mm 0.00 in0.0 mm
04:00 AM 8.0°F-13.3°C 4.4°F-15.3°C 85% Calm Calm -- 30.52 in1033.5 mb 0.00 in0.0 mm 0.00 in0.0 mm 0.00 in0.0 mm
04:05 AM 8.0°F-13.3°C 4.4°F-15.3°C 85% Calm Calm -- 30.52 in1033.5 mb 0.00 in0.0 mm 0.00 in0.0 mm 0.00 in0.0 mm
04:09 AM 7.9°F-13.4°C 4.3°F-15.4°C 85% Calm Calm -- 30.52 in1033.5 mb 0.00 in0.0 mm 0.00 in0.0 mm 0.00 in0.0 mm
04:14 AM 7.6°F-13.6°C 4.0°F-15.6°C 85% Calm Calm -- 30.53 in1033.9 mb 0.00 in0.0 mm 0.00 in0.0 mm 0.00 in0.0 mm
04:19 AM 7.4°F-13.7°C 3.9°F-15.6°C 85% Calm Calm -- 30.53 in1033.9 mb 0.00 in0.0 mm 0.00 in0.0 mm 0.00 in0.0 mm
04:25 AM 7.2°F-13.8°C 3.7°F-15.7°C 85% Calm Calm -- 30.53 in1033.9 mb 0.00 in0.0 mm 0.00 in0.0 mm 0.00 in0.0 mm
04:30 AM 7.2°F-13.8°C 3.7°F-15.7°C 85% Calm Calm -- 30.53 in1033.9 mb 0.00 in0.0 mm 0.00 in0.0 mm 0.00 in0.0 mm
04:35 AM 7.1°F-13.8°C 3.6°F-15.8°C 85% Calm Calm -- 30.53 in1033.9 mb 0.00 in0.0 mm 0.00 in0.0 mm 0.00 in0.0 mm
04:40 AM 7.0°F-13.9°C 3.5°F-15.8°C 85% Calm Calm -- 30.53 in1033.9 mb 0.00 in0.0 mm 0.00 in0.0 mm 0.00 in0.0 mm
04:45 AM 6.9°F-13.9°C 3.4°F-15.9°C 85% Calm Calm -- 30.53 in1033.9 mb 0.00 in0.0 mm 0.00 in0.0 mm 0.00 in0.0 mm
04:50 AM 6.7°F-14.1°C 3.2°F-16.0°C 85% Calm Calm -- 30.53 in1033.9 mb 0.00 in0.0 mm 0.00 in0.0 mm 0.00 in0.0 mm
04:55 AM 6.5°F-14.2°C 3.0°F-16.1°C 85% Calm Calm -- 30.53 in1033.9 mb 0.00 in0.0 mm 0.00 in0.0 mm 0.00 in0.0 mm
05:00 AM 6.4°F-14.2°C 2.9°F-16.2°C 85% Calm Calm -- 30.53 in1033.9 mb 0.00 in0.0 mm 0.00 in0.0 mm 0.00 in0.0 mm
05:04 AM 6.4°F-14.2°C 2.9°F-16.2°C 85% Calm Calm -- 30.53 in1033.9 mb 0.00 in0.0 mm 0.00 in0.0 mm 0.00 in0.0 mm
05:10 AM 6.2°F-14.3°C 2.7°F-16.3°C 85% Calm Calm -- 30.53 in1033.9 mb 0.00 in0.0 mm 0.00 in0.0 mm 0.00 in0.0 mm
05:15 AM 6.1°F-14.4°C 2.6°F-16.3°C 85% Calm Calm -- 30.53 in1033.9 mb 0.00 in0.0 mm 0.00 in0.0 mm 0.00 in0.0 mm
05:20 AM 6.0°F-14.4°C 2.5°F-16.4°C 85% Calm Calm -- 30.53 in1033.9 mb 0.00 in0.0 mm 0.00 in0.0 mm 0.00 in0.0 mm
05:24 AM 6.1°F-14.4°C 2.8°F-16.2°C 86% Calm Calm -- 30.53 in1033.9 mb 0.00 in0.0 mm 0.00 in0.0 mm 0.00 in0.0 mm
05:29 AM 6.0°F-14.4°C 2.7°F-16.3°C 86% Calm Calm -- 30.53 in1033.9 mb 0.00 in0.0 mm 0.00 in0.0 mm 0.00 in0.0 mm
05:35 AM 6.0°F-14.4°C 2.7°F-16.3°C 86% Calm Calm -- 30.53 in1033.9 mb 0.00 in0.0 mm 0.00 in0.0 mm 0.00 in0.0 mm
05:40 AM 5.9°F-14.5°C 2.6°F-16.3°C 86% Calm Calm -- 30.53 in1033.9 mb 0.00 in0.0 mm 0.00 in0.0 mm 0.00 in0.0 mm
05:45 AM 5.9°F-14.5°C 2.6°F-16.3°C 86% Calm Calm -- 30.52 in1033.5 mb 0.00 in0.0 mm 0.00 in0.0 mm 0.00 in0.0 mm
05:50 AM 5.9°F-14.5°C 2.6°F-16.3°C 86% Calm Calm -- 30.53 in1033.9 mb 0.00 in0.0 mm 0.00 in0.0 mm 0.00 in0.0 mm
05:54 AM 6.5°F-14.2°C 3.5°F-15.8°C 87% 1.0 mph NNW1.6 kmh NNW 4.0 mph6.4 kmh 30.53 in1033.9 mb 0.00 in0.0 mm 0.00 in0.0 mm 0.00 in0.0 mm
06:00 AM 7.1°F-13.8°C 4.1°F-15.5°C 87% Calm Calm 2.0 mph3.2 kmh 30.53 in1033.9 mb 0.00 in0.0 mm 0.00 in0.0 mm 0.00 in0.0 mm
06:05 AM 7.4°F-13.7°C 4.1°F-15.5°C 86% Calm Calm -- 30.54 in1034.2 mb 0.00 in0.0 mm 0.00 in0.0 mm 0.00 in0.0 mm
06:10 AM 7.7°F-13.5°C 3.9°F-15.6°C 84% Calm Calm -- 30.55 in1034.5 mb 0.00 in0.0 mm 0.00 in0.0 mm 0.00 in0.0 mm
06:15 AM 8.0°F-13.3°C 3.9°F-15.6°C 83% Calm Calm -- 30.55 in1034.5 mb 0.00 in0.0 mm 0.00 in0.0 mm 0.00 in0.0 mm
06:20 AM 8.1°F-13.3°C 3.8°F-15.7°C 82% Calm Calm -- 30.55 in1034.5 mb 0.00 in0.0 mm 0.00 in0.0 mm 0.00 in0.0 mm
06:24 AM 8.1°F-13.3°C 3.5°F-15.8°C 81% Calm Calm -- 30.55 in1034.5 mb 0.00 in0.0 mm 0.00 in0.0 mm 0.00 in0.0 mm
06:30 AM 8.0°F-13.3°C 3.4°F-15.9°C 81% Calm Calm -- 30.55 in1034.5 mb 0.00 in0.0 mm 0.00 in0.0 mm 0.00 in0.0 mm
06:35 AM 8.0°F-13.3°C 3.4°F-15.9°C 81% Calm Calm -- 30.54 in1034.2 mb 0.00 in0.0 mm 0.00 in0.0 mm 0.00 in0.0 mm
06:40 AM 8.0°F-13.3°C 3.1°F-16.1°C 80% Calm Calm -- 30.54 in1034.2 mb 0.00 in0.0 mm 0.00 in0.0 mm 0.00 in0.0 mm
06:45 AM 8.0°F-13.3°C 3.1°F-16.1°C 80% Calm Calm -- 30.54 in1034.2 mb 0.00 in0.0 mm 0.00 in0.0 mm 0.00 in0.0 mm
06:50 AM 8.2°F-13.2°C 3.1°F-16.1°C 79% Calm Calm -- 30.55 in1034.5 mb 0.00 in0.0 mm 0.00 in0.0 mm 0.00 in0.0 mm
06:55 AM 8.1°F-13.3°C 2.7°F-16.3°C 78% Calm Calm -- 30.55 in1034.5 mb 0.00 in0.0 mm 0.00 in0.0 mm 0.00 in0.0 mm
07:00 AM 8.0°F-13.3°C 2.6°F-16.3°C 78% Calm Calm -- 30.55 in1034.5 mb 0.00 in0.0 mm 0.00 in0.0 mm 0.00 in0.0 mm
07:05 AM 8.0°F-13.3°C 2.6°F-16.3°C 78% Calm Calm -- 30.56 in1034.9 mb 0.00 in0.0 mm 0.00 in0.0 mm 0.00 in0.0 mm
07:10 AM 7.8°F-13.4°C 2.1°F-16.6°C 77% Calm Calm -- 30.56 in1034.9 mb 0.00 in0.0 mm 0.00 in0.0 mm 0.00 in0.0 mm
07:15 AM 7.7°F-13.5°C 2.0°F-16.7°C 77% Calm Calm -- 30.57 in1035.2 mb 0.00 in0.0 mm 0.00 in0.0 mm 0.00 in0.0 mm
07:20 AM 7.5°F-13.6°C 1.8°F-16.8°C 77% Calm Calm -- 30.57 in1035.2 mb 0.00 in0.0 mm 0.00 in0.0 mm 0.00 in0.0 mm
07:25 AM 7.3°F-13.7°C 1.9°F-16.7°C 78% Calm Calm -- 30.57 in1035.2 mb 0.00 in0.0 mm 0.00 in0.0 mm 0.00 in0.0 mm
07:29 AM 7.2°F-13.8°C 1.8°F-16.8°C 78% Calm Calm -- 30.57 in1035.2 mb 0.00 in0.0 mm 0.00 in0.0 mm 0.00 in0.0 mm
07:35 AM 7.0°F-13.9°C 1.6°F-16.9°C 78% Calm Calm -- 30.57 in1035.2 mb 0.00 in0.0 mm 0.00 in0.0 mm 0.00 in0.0 mm
07:40 AM 6.9°F-13.9°C 1.5°F-16.9°C 78% 1.0 mph N1.6 kmh N 2.0 mph3.2 kmh 30.58 in1035.6 mb 0.00 in0.0 mm 0.00 in0.0 mm 0.00 in0.0 mm
07:45 AM 6.9°F-13.9°C 1.5°F-16.9°C 78% 2.0 mph NNE3.2 kmh NNE 3.0 mph4.8 kmh 30.58 in1035.6 mb 0.00 in0.0 mm 0.00 in0.0 mm 0.00 in0.0 mm
07:50 AM 7.0°F-13.9°C 1.1°F-17.2°C 76% 1.0 mph ENE1.6 kmh ENE 3.0 mph4.8 kmh 30.58 in1035.6 mb 0.00 in0.0 mm 0.00 in0.0 mm 0.00 in0.0 mm
07:54 AM 6.9°F-13.9°C 1.0°F-17.2°C 76% 2.0 mph NE3.2 kmh NE 2.0 mph3.2 kmh 30.58 in1035.6 mb 0.00 in0.0 mm 0.00 in0.0 mm 0.00 in0.0 mm
08:00 AM 6.9°F-13.9°C 0.7°F-17.4°C 75% Calm Calm 2.0 mph3.2 kmh 30.59 in1035.9 mb 0.00 in0.0 mm 0.00 in0.0 mm 0.00 in0.0 mm
08:05 AM 6.8°F-14.0°C 0.6°F-17.4°C 75% 1.0 mph NE1.6 kmh NE 3.0 mph4.8 kmh 30.59 in1035.9 mb 0.00 in0.0 mm 0.00 in0.0 mm 0.00 in0.0 mm
08:10 AM 6.5°F-14.2°C 0.3°F-17.6°C 75% 3.0 mph NE4.8 kmh NE 3.0 mph4.8 kmh 30.59 in1035.9 mb 0.00 in0.0 mm 0.00 in0.0 mm 0.00 in0.0 mm
08:15 AM 6.4°F-14.2°C 0.2°F-17.7°C 75% 1.0 mph NE1.6 kmh NE 3.0 mph4.8 kmh 30.59 in1035.9 mb 0.00 in0.0 mm 0.00 in0.0 mm 0.00 in0.0 mm
08:20 AM 6.4°F-14.2°C 0.2°F-17.7°C 75% Calm Calm 4.0 mph6.4 kmh 30.60 in1036.2 mb 0.00 in0.0 mm 0.00 in0.0 mm 0.00 in0.0 mm
08:25 AM 6.3°F-14.3°C 0.1°F-17.7°C 75% 1.0 mph NE1.6 kmh NE 2.0 mph3.2 kmh 30.60 in1036.2 mb 0.00 in0.0 mm 0.00 in0.0 mm 0.00 in0.0 mm
08:30 AM 6.3°F-14.3°C 0.1°F-17.7°C 75% 4.0 mph NE6.4 kmh NE 4.0 mph6.4 kmh 30.60 in1036.2 mb 0.00 in0.0 mm 0.00 in0.0 mm 0.00 in0.0 mm
08:35 AM 6.3°F-14.3°C -0.2°F-17.9°C 74% 1.0 mph NE1.6 kmh NE 5.0 mph8.0 kmh 30.61 in1036.6 mb 0.00 in0.0 mm 0.00 in0.0 mm 0.00 in0.0 mm
08:39 AM 6.2°F-14.3°C -0.3°F-17.9°C 74% Calm Calm -- 30.61 in1036.6 mb 0.00 in0.0 mm 0.00 in0.0 mm 0.00 in0.0 mm
08:45 AM 6.0°F-14.4°C -0.5°F-18.1°C 74% Calm Calm -- 30.61 in1036.6 mb 0.00 in0.0 mm 0.00 in0.0 mm 0.00 in0.0 mm
08:50 AM 6.0°F-14.4°C -0.5°F-18.1°C 74% Calm Calm -- 30.61 in1036.6 mb 0.00 in0.0 mm 0.00 in0.0 mm 0.00 in0.0 mm
08:55 AM 5.9°F-14.5°C -0.6°F-18.1°C 74% Calm Calm -- 30.61 in1036.6 mb 0.00 in0.0 mm 0.00 in0.0 mm 0.00 in0.0 mm
09:00 AM 5.7°F-14.6°C -0.8°F-18.2°C 74% 1.0 mph NE1.6 kmh NE 4.0 mph6.4 kmh 30.61 in1036.6 mb 0.00 in0.0 mm 0.00 in0.0 mm 0.00 in0.0 mm
09:05 AM 5.7°F-14.6°C -0.8°F-18.2°C 74% Calm Calm 2.0 mph3.2 kmh 30.61 in1036.6 mb 0.00 in0.0 mm 0.00 in0.0 mm 0.00 in0.0 mm
09:10 AM 5.6°F-14.7°C -1.2°F-18.4°C 73% Calm Calm 3.0 mph4.8 kmh 30.62 in1036.9 mb 0.00 in0.0 mm 0.00 in0.0 mm 0.00 in0.0 mm
09:15 AM 5.6°F-14.7°C -1.2°F-18.4°C 73% 1.0 mph NE1.6 kmh NE 3.0 mph4.8 kmh 30.62 in1036.9 mb 0.00 in0.0 mm 0.00 in0.0 mm 0.00 in0.0 mm
09:20 AM 5.6°F-14.7°C -1.2°F-18.4°C 73% 1.0 mph NE1.6 kmh NE 2.0 mph3.2 kmh 30.63 in1037.3 mb 0.00 in0.0 mm 0.00 in0.0 mm 0.00 in0.0 mm
09:25 AM 5.6°F-14.7°C -1.5°F-18.6°C 72% Calm Calm -- 30.63 in1037.3 mb 0.00 in0.0 mm 0.00 in0.0 mm 0.00 in0.0 mm
09:30 AM 5.6°F-14.7°C -1.5°F-18.6°C 72% Calm Calm -- 30.64 in1037.6 mb 0.00 in0.0 mm 0.00 in0.0 mm 0.00 in0.0 mm
09:35 AM 5.6°F-14.7°C -1.5°F-18.6°C 72% Calm Calm -- 30.65 in1037.9 mb 0.00 in0.0 mm 0.00 in0.0 mm 0.00 in0.0 mm
09:40 AM 5.7°F-14.6°C -1.4°F-18.6°C 72% Calm Calm -- 30.65 in1037.9 mb 0.00 in0.0 mm 0.00 in0.0 mm 0.00 in0.0 mm
09:45 AM 5.8°F-14.6°C -1.3°F-18.5°C 72% Calm Calm -- 30.65 in1037.9 mb 0.00 in0.0 mm 0.00 in0.0 mm 0.00 in0.0 mm
09:49 AM 5.9°F-14.5°C -1.2°F-18.4°C 72% 1.0 mph NE1.6 kmh NE 4.0 mph6.4 kmh 30.65 in1037.9 mb 0.00 in0.0 mm 0.00 in0.0 mm 0.00 in0.0 mm
09:55 AM 6.0°F-14.4°C -1.1°F-18.4°C 72% 1.0 mph NE1.6 kmh NE 3.0 mph4.8 kmh 30.65 in1037.9 mb 0.00 in0.0 mm 0.00 in0.0 mm 0.00 in0.0 mm
10:00 AM 6.2°F-14.3°C -0.9°F-18.3°C 72% Calm Calm 1.0 mph1.6 kmh 30.65 in1037.9 mb 0.00 in0.0 mm 0.00 in0.0 mm 0.00 in0.0 mm
10:05 AM 6.4°F-14.2°C -1.0°F-18.3°C 71% Calm Calm -- 30.65 in1037.9 mb 0.00 in0.0 mm 0.00 in0.0 mm 0.00 in0.0 mm
10:10 AM 6.7°F-14.1°C -0.4°F-18.0°C 72% 1.0 mph NE1.6 kmh NE 1.0 mph1.6 kmh 30.65 in1037.9 mb 0.00 in0.0 mm 0.00 in0.0 mm 0.00 in0.0 mm
10:15 AM 6.9°F-13.9°C -0.5°F-18.1°C 71% 3.0 mph NNE4.8 kmh NNE 5.0 mph8.0 kmh 30.65 in1037.9 mb 0.00 in0.0 mm 0.00 in0.0 mm 0.00 in0.0 mm
10:20 AM 7.0°F-13.9°C -0.4°F-18.0°C 71% Calm Calm 2.0 mph3.2 kmh 30.66 in1038.3 mb 0.00 in0.0 mm 0.00 in0.0 mm 0.00 in0.0 mm
10:24 AM 7.3°F-13.7°C -0.1°F-17.8°C 71% 2.0 mph NE3.2 kmh NE 3.0 mph4.8 kmh 30.66 in1038.3 mb 0.00 in0.0 mm 0.00 in0.0 mm 0.00 in0.0 mm
10:30 AM 7.5°F-13.6°C 0.1°F-17.7°C 71% 3.0 mph ENE4.8 kmh ENE 6.0 mph9.7 kmh 30.66 in1038.3 mb 0.00 in0.0 mm 0.00 in0.0 mm 0.00 in0.0 mm
10:35 AM 7.7°F-13.5°C 0.0°F-17.8°C 70% Calm Calm 6.0 mph9.7 kmh 30.66 in1038.3 mb 0.00 in0.0 mm 0.00 in0.0 mm 0.00 in0.0 mm
10:39 AM 7.8°F-13.4°C -0.2°F-17.9°C 69% 1.0 mph E1.6 kmh E 5.0 mph8.0 kmh 30.66 in1038.3 mb 0.00 in0.0 mm 0.00 in0.0 mm 0.00 in0.0 mm
10:44 AM 8.1°F-13.3°C 0.1°F-17.7°C 69% Calm Calm -- 30.66 in1038.3 mb 0.00 in0.0 mm 0.00 in0.0 mm 0.00 in0.0 mm
10:50 AM 8.2°F-13.2°C 0.2°F-17.7°C 69% Calm Calm -- 30.66 in1038.3 mb 0.00 in0.0 mm 0.00 in0.0 mm 0.00 in0.0 mm
10:55 AM 8.4°F-13.1°C 0.3°F-17.6°C 69% Calm Calm 3.0 mph4.8 kmh 30.66 in1038.3 mb 0.00 in0.0 mm 0.00 in0.0 mm 0.00 in0.0 mm
11:00 AM 8.6°F-13.0°C 0.5°F-17.5°C 69% Calm Calm -- 30.67 in1038.6 mb 0.00 in0.0 mm 0.00 in0.0 mm 0.00 in0.0 mm
11:05 AM 8.9°F-12.8°C 0.8°F-17.3°C 69% 2.0 mph SE3.2 kmh SE 2.0 mph3.2 kmh 30.67 in1038.6 mb 0.00 in0.0 mm 0.00 in0.0 mm 0.00 in0.0 mm
11:10 AM 9.3°F-12.6°C 0.9°F-17.3°C 68% 3.0 mph ENE4.8 kmh ENE 5.0 mph8.0 kmh 30.67 in1038.6 mb 0.00 in0.0 mm 0.00 in0.0 mm 0.00 in0.0 mm
11:15 AM 9.2°F-12.7°C 0.2°F-17.7°C 66% 3.0 mph NE4.8 kmh NE 4.0 mph6.4 kmh 30.67 in1038.6 mb 0.00 in0.0 mm 0.00 in0.0 mm 0.00 in0.0 mm
11:19 AM 9.0°F-12.8°C -0.4°F-18.0°C 65% 1.0 mph NE1.6 kmh NE 4.0 mph6.4 kmh 30.67 in1038.6 mb 0.00 in0.0 mm 0.00 in0.0 mm 0.00 in0.0 mm
11:25 AM 9.0°F-12.8°C 0.3°F-17.6°C 67% 1.0 mph NE1.6 kmh NE 1.0 mph1.6 kmh 30.68 in1038.9 mb 0.00 in0.0 mm 0.00 in0.0 mm 0.00 in0.0 mm
11:30 AM 9.1°F-12.7°C -0.3°F-17.9°C 65% Calm Calm 4.0 mph6.4 kmh 30.68 in1038.9 mb 0.00 in0.0 mm 0.00 in0.0 mm 0.00 in0.0 mm
11:35 AM 9.2°F-12.7°C -0.5°F-18.1°C 64% 1.0 mph ENE1.6 kmh ENE 4.0 mph6.4 kmh 30.68 in1038.9 mb 0.00 in0.0 mm 0.00 in0.0 mm 0.00 in0.0 mm
11:40 AM 9.4°F-12.6°C -0.6°F-18.1°C 63% Calm Calm 4.0 mph6.4 kmh 30.68 in1038.9 mb 0.00 in0.0 mm 0.00 in0.0 mm 0.00 in0.0 mm
11:44 AM 9.9°F-12.3°C 0.5°F-17.5°C 65% Calm Calm 1.0 mph1.6 kmh 30.68 in1038.9 mb 0.00 in0.0 mm 0.00 in0.0 mm 0.00 in0.0 mm
11:50 AM 10.8°F-11.8°C 1.4°F-17.0°C 65% Calm Calm 3.0 mph4.8 kmh 30.69 in1039.3 mb 0.00 in0.0 mm 0.00 in0.0 mm 0.00 in0.0 mm
11:55 AM 11.3°F-11.5°C 1.5°F-16.9°C 64% Calm Calm 2.0 mph3.2 kmh 30.68 in1038.9 mb 0.00 in0.0 mm 0.00 in0.0 mm 0.00 in0.0 mm
12:00 PM 11.5°F-11.4°C 1.4°F-17.0°C 63% Calm Calm 3.0 mph4.8 kmh 30.68 in1038.9 mb 0.00 in0.0 mm 0.00 in0.0 mm 0.00 in0.0 mm
12:05 PM 11.6°F-11.3°C 1.1°F-17.2°C 62% Calm Calm 3.0 mph4.8 kmh 30.68 in1038.9 mb 0.00 in0.0 mm 0.00 in0.0 mm 0.00 in0.0 mm
12:10 PM 11.2°F-11.6°C 0.0°F-17.8°C 60% 4.0 mph NE6.4 kmh NE 6.0 mph9.7 kmh 30.68 in1038.9 mb 0.00 in0.0 mm 0.00 in0.0 mm 0.00 in0.0 mm
12:15 PM 11.1°F-11.6°C 0.3°F-17.6°C 61% Calm Calm 4.0 mph6.4 kmh 30.68 in1038.9 mb 0.00 in0.0 mm 0.00 in0.0 mm 0.00 in0.0 mm
12:20 PM 11.9°F-11.2°C 1.4°F-17.0°C 62% Calm Calm 4.0 mph6.4 kmh 30.68 in1038.9 mb 0.00 in0.0 mm 0.00 in0.0 mm 0.00 in0.0 mm
12:24 PM 12.6°F-10.8°C 1.7°F-16.8°C 61% Calm Calm 5.0 mph8.0 kmh 30.68 in1038.9 mb 0.00 in0.0 mm 0.00 in0.0 mm 0.00 in0.0 mm
12:30 PM 13.1°F-10.5°C 1.8°F-16.8°C 60% 1.0 mph E1.6 kmh E 3.0 mph4.8 kmh 30.68 in1038.9 mb 0.00 in0.0 mm 0.00 in0.0 mm 0.00 in0.0 mm
12:35 PM 13.6°F-10.2°C 2.3°F-16.5°C 60% 1.0 mph ESE1.6 kmh ESE 3.0 mph4.8 kmh 30.69 in1039.3 mb 0.00 in0.0 mm 0.00 in0.0 mm 0.00 in0.0 mm
12:40 PM 13.4°F-10.3°C 0.6°F-17.4°C 56% Calm Calm 2.0 mph3.2 kmh 30.69 in1039.3 mb 0.00 in0.0 mm 0.00 in0.0 mm 0.00 in0.0 mm
12:45 PM 13.3°F-10.4°C 0.6°F-17.4°C 56% 1.0 mph ESE1.6 kmh ESE 3.0 mph4.8 kmh 30.69 in1039.3 mb 0.00 in0.0 mm 0.00 in0.0 mm 0.00 in0.0 mm
12:49 PM 13.5°F-10.3°C 0.4°F-17.6°C 55% 2.0 mph E3.2 kmh E 3.0 mph4.8 kmh 30.68 in1038.9 mb 0.00 in0.0 mm 0.00 in0.0 mm 0.00 in0.0 mm
12:55 PM 13.1°F-10.5°C -0.4°F-18.0°C 54% 3.0 mph SSE4.8 kmh SSE 6.0 mph9.7 kmh 30.69 in1039.3 mb 0.00 in0.0 mm 0.00 in0.0 mm 0.00 in0.0 mm
01:00 PM 13.3°F-10.4°C 0.9°F-17.3°C 57% Calm Calm -- 30.68 in1038.9 mb 0.00 in0.0 mm 0.00 in0.0 mm 0.00 in0.0 mm
01:05 PM 13.9°F-10.1°C 1.5°F-16.9°C 57% Calm Calm 2.0 mph3.2 kmh 30.68 in1038.9 mb 0.00 in0.0 mm 0.00 in0.0 mm 0.00 in0.0 mm
01:10 PM 14.3°F-9.8°C 1.5°F-16.9°C 56% Calm Calm 2.0 mph3.2 kmh 30.68 in1038.9 mb 0.00 in0.0 mm 0.00 in0.0 mm 0.00 in0.0 mm
01:15 PM 14.3°F-9.8°C 0.7°F-17.4°C 54% 2.0 mph ENE3.2 kmh ENE 5.0 mph8.0 kmh 30.68 in1038.9 mb 0.00 in0.0 mm 0.00 in0.0 mm 0.00 in0.0 mm
01:20 PM 14.3°F-9.8°C 1.1°F-17.2°C 55% 1.0 mph SE1.6 kmh SE 3.0 mph4.8 kmh 30.67 in1038.6 mb 0.00 in0.0 mm 0.00 in0.0 mm 0.00 in0.0 mm
01:25 PM 14.6°F-9.7°C 1.4°F-17.0°C 55% Calm Calm 3.0 mph4.8 kmh 30.67 in1038.6 mb 0.00 in0.0 mm 0.00 in0.0 mm 0.00 in0.0 mm
01:30 PM 14.9°F-9.5°C 1.3°F-17.1°C 54% 4.0 mph SE6.4 kmh SE 5.0 mph8.0 kmh 30.67 in1038.6 mb 0.00 in0.0 mm 0.00 in0.0 mm 0.00 in0.0 mm
01:35 PM 14.7°F-9.6°C -0.1°F-17.8°C 51% 2.0 mph E3.2 kmh E 3.0 mph4.8 kmh 30.67 in1038.6 mb 0.00 in0.0 mm 0.00 in0.0 mm 0.00 in0.0 mm
01:40 PM 14.9°F-9.5°C 0.9°F-17.3°C 53% Calm Calm 6.0 mph9.7 kmh 30.65 in1037.9 mb 0.00 in0.0 mm 0.00 in0.0 mm 0.00 in0.0 mm
01:45 PM 15.2°F-9.3°C 1.2°F-17.1°C 53% 2.0 mph E3.2 kmh E 5.0 mph8.0 kmh 30.65 in1037.9 mb 0.00 in0.0 mm 0.00 in0.0 mm 0.00 in0.0 mm
01:50 PM 15.4°F-9.2°C 1.7°F-16.8°C 54% 3.0 mph E4.8 kmh E 8.0 mph12.9 kmh 30.66 in1038.3 mb 0.00 in0.0 mm 0.00 in0.0 mm 0.00 in0.0 mm
01:55 PM 15.3°F-9.3°C 1.3°F-17.1°C 53% 3.0 mph SE4.8 kmh SE 4.0 mph6.4 kmh 30.66 in1038.3 mb 0.00 in0.0 mm 0.00 in0.0 mm 0.00 in0.0 mm
02:00 PM 14.9°F-9.5°C 0.5°F-17.5°C 52% Calm Calm 6.0 mph9.7 kmh 30.65 in1037.9 mb 0.00 in0.0 mm 0.00 in0.0 mm 0.00 in0.0 mm
02:05 PM 15.3°F-9.3°C 2.4°F-16.4°C 56% 6.0 mph SSE9.7 kmh SSE 6.0 mph9.7 kmh 30.65 in1037.9 mb 0.00 in0.0 mm 0.00 in0.0 mm 0.00 in0.0 mm
02:10 PM 15.3°F-9.3°C 2.4°F-16.4°C 56% 2.0 mph SE3.2 kmh SE 4.0 mph6.4 kmh 30.65 in1037.9 mb 0.00 in0.0 mm 0.00 in0.0 mm 0.00 in0.0 mm
02:15 PM 15.3°F-9.3°C 2.4°F-16.4°C 56% 7.0 mph E11.3 kmh E 7.0 mph11.3 kmh 30.65 in1037.9 mb 0.00 in0.0 mm 0.00 in0.0 mm 0.00 in0.0 mm
02:20 PM 15.2°F-9.3°C 2.0°F-16.7°C 55% 5.0 mph E8.0 kmh E 8.0 mph12.9 kmh 30.65 in1037.9 mb 0.00 in0.0 mm 0.00 in0.0 mm 0.00 in0.0 mm
02:25 PM 15.1°F-9.4°C 1.9°F-16.7°C 55% 1.0 mph SE1.6 kmh SE 7.0 mph11.3 kmh 30.65 in1037.9 mb 0.00 in0.0 mm 0.00 in0.0 mm 0.00 in0.0 mm
02:29 PM 15.0°F-9.4°C 1.4°F-17.0°C 54% 1.0 mph E1.6 kmh E 5.0 mph8.0 kmh 30.65 in1037.9 mb 0.00 in0.0 mm 0.00 in0.0 mm 0.00 in0.0 mm
02:35 PM 15.1°F-9.4°C 1.5°F-16.9°C 54% 2.0 mph ESE3.2 kmh ESE 3.0 mph4.8 kmh 30.64 in1037.6 mb 0.00 in0.0 mm 0.00 in0.0 mm 0.00 in0.0 mm
02:40 PM 15.2°F-9.3°C 1.6°F-16.9°C 54% Calm Calm 3.0 mph4.8 kmh 30.64 in1037.6 mb 0.00 in0.0 mm 0.00 in0.0 mm 0.00 in0.0 mm
02:45 PM 15.3°F-9.3°C 2.4°F-16.4°C 56% 1.0 mph E1.6 kmh E 4.0 mph6.4 kmh 30.64 in1037.6 mb 0.00 in0.0 mm 0.00 in0.0 mm 0.00 in0.0 mm
02:50 PM 15.4°F-9.2°C 2.1°F-16.6°C 55% Calm Calm 4.0 mph6.4 kmh 30.64 in1037.6 mb 0.00 in0.0 mm 0.00 in0.0 mm 0.00 in0.0 mm
02:55 PM 15.3°F-9.3°C 2.0°F-16.7°C 55% 1.0 mph E1.6 kmh E 6.0 mph9.7 kmh 30.63 in1037.3 mb 0.00 in0.0 mm 0.00 in0.0 mm 0.00 in0.0 mm
02:59 PM 15.5°F-9.2°C 2.2°F-16.6°C 55% Calm Calm 4.0 mph6.4 kmh 30.63 in1037.3 mb 0.00 in0.0 mm 0.00 in0.0 mm 0.00 in0.0 mm
03:05 PM 15.2°F-9.3°C 0.8°F-17.3°C 52% 2.0 mph SSE3.2 kmh SSE 6.0 mph9.7 kmh 30.62 in1036.9 mb 0.00 in0.0 mm 0.00 in0.0 mm 0.00 in0.0 mm
03:10 PM 15.3°F-9.3°C 1.3°F-17.1°C 53% 2.0 mph SE3.2 kmh SE 4.0 mph6.4 kmh 30.62 in1036.9 mb 0.00 in0.0 mm 0.00 in0.0 mm 0.00 in0.0 mm
03:15 PM 15.4°F-9.2°C 1.3°F-17.1°C 53% 6.0 mph E9.7 kmh E 6.0 mph9.7 kmh 30.62 in1036.9 mb 0.00 in0.0 mm 0.00 in0.0 mm 0.00 in0.0 mm
03:20 PM 15.5°F-9.2°C 1.4°F-17.0°C 53% 3.0 mph SSE4.8 kmh SSE 7.0 mph11.3 kmh 30.62 in1036.9 mb 0.00 in0.0 mm 0.00 in0.0 mm 0.00 in0.0 mm
03:25 PM 15.5°F-9.2°C 1.0°F-17.2°C 52% 2.0 mph SSE3.2 kmh SSE 6.0 mph9.7 kmh 30.62 in1036.9 mb 0.00 in0.0 mm 0.00 in0.0 mm 0.00 in0.0 mm
03:30 PM 15.4°F-9.2°C 0.5°F-17.5°C 51% 6.0 mph ESE9.7 kmh ESE 7.0 mph11.3 kmh 30.62 in1036.9 mb 0.00 in0.0 mm 0.00 in0.0 mm 0.00 in0.0 mm
03:34 PM 15.3°F-9.3°C 0.0°F-17.8°C 50% Calm Calm 5.0 mph8.0 kmh 30.61 in1036.6 mb 0.00 in0.0 mm 0.00 in0.0 mm 0.00 in0.0 mm
03:39 PM 15.2°F-9.3°C 0.3°F-17.6°C 51% 3.0 mph SSE4.8 kmh SSE 5.0 mph8.0 kmh 30.61 in1036.6 mb 0.00 in0.0 mm 0.00 in0.0 mm 0.00 in0.0 mm
03:44 PM 15.2°F-9.3°C 1.2°F-17.1°C 53% 3.0 mph ESE4.8 kmh ESE 8.0 mph12.9 kmh 30.62 in1036.9 mb 0.00 in0.0 mm 0.00 in0.0 mm 0.00 in0.0 mm
03:50 PM 15.2°F-9.3°C 0.3°F-17.6°C 51% 4.0 mph SE6.4 kmh SE 7.0 mph11.3 kmh 30.62 in1036.9 mb 0.00 in0.0 mm 0.00 in0.0 mm 0.00 in0.0 mm
03:55 PM 14.9°F-9.5°C 0.1°F-17.7°C 51% 3.0 mph SE4.8 kmh SE 6.0 mph9.7 kmh 30.61 in1036.6 mb 0.00 in0.0 mm 0.00 in0.0 mm 0.00 in0.0 mm
03:59 PM 15.1°F-9.4°C 0.2°F-17.7°C 51% 4.0 mph S6.4 kmh S 7.0 mph11.3 kmh 30.61 in1036.6 mb 0.00 in0.0 mm 0.00 in0.0 mm 0.00 in0.0 mm
04:05 PM 15.1°F-9.4°C 0.2°F-17.7°C 51% 1.0 mph SE1.6 kmh SE 6.0 mph9.7 kmh 30.61 in1036.6 mb 0.00 in0.0 mm 0.00 in0.0 mm 0.00 in0.0 mm
04:10 PM 15.0°F-9.4°C -0.3°F-17.9°C 50% 1.0 mph ESE1.6 kmh ESE 4.0 mph6.4 kmh 30.61 in1036.6 mb 0.00 in0.0 mm 0.00 in0.0 mm 0.00 in0.0 mm
04:15 PM 15.3°F-9.3°C 0.8°F-17.3°C 52% 4.0 mph S6.4 kmh S 4.0 mph6.4 kmh 30.60 in1036.2 mb 0.00 in0.0 mm 0.00 in0.0 mm 0.00 in0.0 mm
04:20 PM 15.4°F-9.2°C 0.1°F-17.7°C 50% 5.0 mph S8.0 kmh S 8.0 mph12.9 kmh 30.60 in1036.2 mb 0.00 in0.0 mm 0.00 in0.0 mm 0.00 in0.0 mm
04:25 PM 15.3°F-9.3°C -0.9°F-18.3°C 48% 6.0 mph SE9.7 kmh SE 7.0 mph11.3 kmh 30.61 in1036.6 mb 0.00 in0.0 mm 0.00 in0.0 mm 0.00 in0.0 mm
04:30 PM 15.4°F-9.2°C 0.1°F-17.7°C 50% Calm Calm 5.0 mph8.0 kmh 30.61 in1036.6 mb 0.00 in0.0 mm 0.00 in0.0 mm 0.00 in0.0 mm
04:35 PM 15.7°F-9.1°C -0.1°F-17.8°C 49% 2.0 mph SE3.2 kmh SE 4.0 mph6.4 kmh 30.60 in1036.2 mb 0.00 in0.0 mm 0.00 in0.0 mm 0.00 in0.0 mm
04:40 PM 16.0°F-8.9°C 0.7°F-17.4°C 50% 3.0 mph SSE4.8 kmh SSE 4.0 mph6.4 kmh 30.60 in1036.2 mb 0.00 in0.0 mm 0.00 in0.0 mm 0.00 in0.0 mm
04:45 PM 16.1°F-8.8°C 1.2°F-17.1°C 51% 2.0 mph SE3.2 kmh SE 4.0 mph6.4 kmh 30.60 in1036.2 mb 0.00 in0.0 mm 0.00 in0.0 mm 0.00 in0.0 mm
04:50 PM 16.1°F-8.8°C 1.2°F-17.1°C 51% 1.0 mph ESE1.6 kmh ESE 7.0 mph11.3 kmh 30.60 in1036.2 mb 0.00 in0.0 mm 0.00 in0.0 mm 0.00 in0.0 mm
04:55 PM 16.2°F-8.8°C 1.3°F-17.1°C 51% 2.0 mph ESE3.2 kmh ESE 3.0 mph4.8 kmh 30.60 in1036.2 mb 0.00 in0.0 mm 0.00 in0.0 mm 0.00 in0.0 mm
05:00 PM 16.3°F-8.7°C 1.8°F-16.8°C 52% 1.0 mph ESE1.6 kmh ESE 6.0 mph9.7 kmh 30.60 in1036.2 mb 0.00 in0.0 mm 0.00 in0.0 mm 0.00 in0.0 mm
05:05 PM 16.3°F-8.7°C 1.4°F-17.0°C 51% 2.0 mph ESE3.2 kmh ESE 5.0 mph8.0 kmh 30.60 in1036.2 mb 0.00 in0.0 mm 0.00 in0.0 mm 0.00 in0.0 mm
05:10 PM 16.3°F-8.7°C 1.8°F-16.8°C 52% Calm Calm 2.0 mph3.2 kmh 30.60 in1036.2 mb 0.00 in0.0 mm 0.00 in0.0 mm 0.00 in0.0 mm
05:15 PM 16.2°F-8.8°C 1.7°F-16.8°C 52% 7.0 mph E11.3 kmh E 7.0 mph11.3 kmh 30.60 in1036.2 mb 0.00 in0.0 mm 0.00 in0.0 mm 0.00 in0.0 mm
05:20 PM 16.0°F-8.9°C 1.5°F-16.9°C 52% Calm Calm 7.0 mph11.3 kmh 30.60 in1036.2 mb 0.00 in0.0 mm 0.00 in0.0 mm 0.00 in0.0 mm
05:25 PM 15.9°F-8.9°C 2.2°F-16.6°C 54% 3.0 mph E4.8 kmh E 4.0 mph6.4 kmh 30.60 in1036.2 mb 0.00 in0.0 mm 0.00 in0.0 mm 0.00 in0.0 mm
05:30 PM 15.9°F-8.9°C 2.2°F-16.6°C 54% 1.0 mph SE1.6 kmh SE 2.0 mph3.2 kmh 30.59 in1035.9 mb 0.00 in0.0 mm 0.00 in0.0 mm 0.00 in0.0 mm
05:35 PM 15.9°F-8.9°C 2.6°F-16.3°C 55% 2.0 mph SE3.2 kmh SE 5.0 mph8.0 kmh 30.59 in1035.9 mb 0.00 in0.0 mm 0.00 in0.0 mm 0.00 in0.0 mm
05:40 PM 15.7°F-9.1°C 2.4°F-16.4°C 55% 2.0 mph SE3.2 kmh SE 3.0 mph4.8 kmh 30.60 in1036.2 mb 0.00 in0.0 mm 0.00 in0.0 mm 0.00 in0.0 mm
05:45 PM 15.7°F-9.1°C 2.4°F-16.4°C 55% Calm Calm 5.0 mph8.0 kmh 30.60 in1036.2 mb 0.00 in0.0 mm 0.00 in0.0 mm 0.00 in0.0 mm
05:50 PM 15.7°F-9.1°C 2.8°F-16.2°C 56% Calm Calm 4.0 mph6.4 kmh 30.60 in1036.2 mb 0.00 in0.0 mm 0.00 in0.0 mm 0.00 in0.0 mm
05:54 PM 15.5°F-9.2°C 2.6°F-16.3°C 56% 1.0 mph SE1.6 kmh SE 4.0 mph6.4 kmh 30.60 in1036.2 mb 0.00 in0.0 mm 0.00 in0.0 mm 0.00 in0.0 mm
06:00 PM 15.3°F-9.3°C 2.8°F-16.2°C 57% 2.0 mph SSE3.2 kmh SSE 5.0 mph8.0 kmh 30.60 in1036.2 mb 0.00 in0.0 mm 0.00 in0.0 mm 0.00 in0.0 mm
06:04 PM 15.3°F-9.3°C 2.8°F-16.2°C 57% Calm Calm 3.0 mph4.8 kmh 30.59 in1035.9 mb 0.00 in0.0 mm 0.00 in0.0 mm 0.00 in0.0 mm
06:10 PM 15.2°F-9.3°C 3.1°F-16.1°C 58% 2.0 mph S3.2 kmh S 4.0 mph6.4 kmh 30.60 in1036.2 mb 0.00 in0.0 mm 0.00 in0.0 mm 0.00 in0.0 mm
06:15 PM 15.0°F-9.4°C 2.9°F-16.2°C 58% Calm Calm 5.0 mph8.0 kmh 30.60 in1036.2 mb 0.00 in0.0 mm 0.00 in0.0 mm 0.00 in0.0 mm
06:19 PM 15.0°F-9.4°C 3.3°F-15.9°C 59% Calm Calm 4.0 mph6.4 kmh 30.60 in1036.2 mb 0.00 in0.0 mm 0.00 in0.0 mm 0.00 in0.0 mm
06:25 PM 14.9°F-9.5°C 3.2°F-16.0°C 59% 1.0 mph SE1.6 kmh SE 4.0 mph6.4 kmh 30.60 in1036.2 mb 0.00 in0.0 mm 0.00 in0.0 mm 0.00 in0.0 mm
06:30 PM 14.8°F-9.6°C 3.1°F-16.1°C 59% 1.0 mph ESE1.6 kmh ESE 3.0 mph4.8 kmh 30.59 in1035.9 mb 0.00 in0.0 mm 0.00 in0.0 mm 0.00 in0.0 mm
06:34 PM 14.7°F-9.6°C 3.4°F-15.9°C 60% Calm Calm 3.0 mph4.8 kmh 30.59 in1035.9 mb 0.00 in0.0 mm 0.00 in0.0 mm 0.00 in0.0 mm
06:40 PM 14.7°F-9.6°C 3.4°F-15.9°C 60% 4.0 mph SE6.4 kmh SE 4.0 mph6.4 kmh 30.59 in1035.9 mb 0.00 in0.0 mm 0.00 in0.0 mm 0.00 in0.0 mm
06:45 PM 14.6°F-9.7°C 3.3°F-15.9°C 60% 2.0 mph SE3.2 kmh SE 3.0 mph4.8 kmh 30.58 in1035.6 mb 0.00 in0.0 mm 0.00 in0.0 mm 0.00 in0.0 mm
06:50 PM 14.5°F-9.7°C 3.5°F-15.8°C 61% 2.0 mph SE3.2 kmh SE 3.0 mph4.8 kmh 30.58 in1035.6 mb 0.00 in0.0 mm 0.00 in0.0 mm 0.00 in0.0 mm
06:55 PM 14.4°F-9.8°C 3.4°F-15.9°C 61% 2.0 mph E3.2 kmh E 2.0 mph3.2 kmh 30.58 in1035.6 mb 0.00 in0.0 mm 0.00 in0.0 mm 0.00 in0.0 mm
07:00 PM 14.4°F-9.8°C 3.8°F-15.7°C 62% Calm Calm 3.0 mph4.8 kmh 30.58 in1035.6 mb 0.00 in0.0 mm 0.00 in0.0 mm 0.00 in0.0 mm
07:05 PM 14.4°F-9.8°C 3.8°F-15.7°C 62% Calm Calm 5.0 mph8.0 kmh 30.59 in1035.9 mb 0.00 in0.0 mm 0.00 in0.0 mm 0.00 in0.0 mm
07:10 PM 14.3°F-9.8°C 3.7°F-15.7°C 62% Calm Calm 1.0 mph1.6 kmh 30.59 in1035.9 mb 0.00 in0.0 mm 0.00 in0.0 mm 0.00 in0.0 mm
07:14 PM 14.3°F-9.8°C 3.7°F-15.7°C 62% Calm Calm 3.0 mph4.8 kmh 30.59 in1035.9 mb 0.00 in0.0 mm 0.00 in0.0 mm 0.00 in0.0 mm
07:19 PM 14.3°F-9.8°C 3.7°F-15.7°C 62% 1.0 mph SSE1.6 kmh SSE 3.0 mph4.8 kmh 30.59 in1035.9 mb 0.00 in0.0 mm 0.00 in0.0 mm 0.00 in0.0 mm
07:25 PM 14.3°F-9.8°C 3.7°F-15.7°C 62% 1.0 mph SE1.6 kmh SE 3.0 mph4.8 kmh 30.59 in1035.9 mb 0.00 in0.0 mm 0.00 in0.0 mm 0.00 in0.0 mm
07:30 PM 14.3°F-9.8°C 4.0°F-15.6°C 63% Calm Calm -- 30.59 in1035.9 mb 0.00 in0.0 mm 0.00 in0.0 mm 0.00 in0.0 mm
07:35 PM 14.3°F-9.8°C 4.0°F-15.6°C 63% Calm Calm -- 30.59 in1035.9 mb 0.00 in0.0 mm 0.00 in0.0 mm 0.00 in0.0 mm
07:39 PM 14.3°F-9.8°C 4.0°F-15.6°C 63% Calm Calm -- 30.59 in1035.9 mb 0.00 in0.0 mm 0.00 in0.0 mm 0.00 in0.0 mm
07:45 PM 14.3°F-9.8°C 4.0°F-15.6°C 63% 1.0 mph E1.6 kmh E 3.0 mph4.8 kmh 30.58 in1035.6 mb 0.00 in0.0 mm 0.00 in0.0 mm 0.00 in0.0 mm
07:50 PM 14.4°F-9.8°C 4.1°F-15.5°C 63% 1.0 mph E1.6 kmh E 3.0 mph4.8 kmh 30.58 in1035.6 mb 0.00 in0.0 mm 0.00 in0.0 mm 0.00 in0.0 mm
07:55 PM 14.4°F-9.8°C 4.1°F-15.5°C 63% 2.0 mph SE3.2 kmh SE 4.0 mph6.4 kmh 30.58 in1035.6 mb 0.00 in0.0 mm 0.00 in0.0 mm 0.00 in0.0 mm
08:00 PM 14.4°F-9.8°C 4.1°F-15.5°C 63% Calm Calm 4.0 mph6.4 kmh 30.58 in1035.6 mb 0.00 in0.0 mm 0.00 in0.0 mm 0.00 in0.0 mm
08:05 PM 14.4°F-9.8°C 4.1°F-15.5°C 63% 1.0 mph E1.6 kmh E 3.0 mph4.8 kmh 30.58 in1035.6 mb 0.00 in0.0 mm 0.00 in0.0 mm 0.00 in0.0 mm
08:10 PM 14.3°F-9.8°C 4.0°F-15.6°C 63% Calm Calm 2.0 mph3.2 kmh 30.58 in1035.6 mb 0.00 in0.0 mm 0.00 in0.0 mm 0.00 in0.0 mm
08:15 PM 14.3°F-9.8°C 4.0°F-15.6°C 63% Calm Calm 2.0 mph3.2 kmh 30.57 in1035.2 mb 0.00 in0.0 mm 0.00 in0.0 mm 0.00 in0.0 mm
08:20 PM 14.3°F-9.8°C 4.4°F-15.3°C 64% Calm Calm 4.0 mph6.4 kmh 30.57 in1035.2 mb 0.00 in0.0 mm 0.00 in0.0 mm 0.00 in0.0 mm
08:25 PM 14.3°F-9.8°C 4.4°F-15.3°C 64% Calm Calm 7.0 mph11.3 kmh 30.57 in1035.2 mb 0.00 in0.0 mm 0.00 in0.0 mm 0.00 in0.0 mm
08:30 PM 14.3°F-9.8°C 4.4°F-15.3°C 64% 1.0 mph ESE1.6 kmh ESE 4.0 mph6.4 kmh 30.57 in1035.2 mb 0.00 in0.0 mm 0.00 in0.0 mm 0.00 in0.0 mm
08:34 PM 14.2°F-9.9°C 3.9°F-15.6°C 63% Calm Calm 4.0 mph6.4 kmh 30.57 in1035.2 mb 0.00 in0.0 mm 0.00 in0.0 mm 0.00 in0.0 mm
08:40 PM 14.1°F-9.9°C 4.2°F-15.4°C 64% Calm Calm -- 30.56 in1034.9 mb 0.00 in0.0 mm 0.00 in0.0 mm 0.00 in0.0 mm
08:45 PM 14.1°F-9.9°C 4.5°F-15.3°C 65% 1.0 mph ESE1.6 kmh ESE 3.0 mph4.8 kmh 30.56 in1034.9 mb 0.00 in0.0 mm 0.00 in0.0 mm 0.00 in0.0 mm
08:49 PM 14.1°F-9.9°C 4.5°F-15.3°C 65% Calm Calm 4.0 mph6.4 kmh 30.56 in1034.9 mb 0.00 in0.0 mm 0.00 in0.0 mm 0.00 in0.0 mm
08:54 PM 14.1°F-9.9°C 4.5°F-15.3°C 65% Calm Calm 3.0 mph4.8 kmh 30.56 in1034.9 mb 0.00 in0.0 mm 0.00 in0.0 mm 0.00 in0.0 mm
08:59 PM 14.1°F-9.9°C 4.5°F-15.3°C 65% Calm Calm 4.0 mph6.4 kmh 30.56 in1034.9 mb 0.00 in0.0 mm 0.00 in0.0 mm 0.00 in0.0 mm
09:04 PM 14.2°F-9.9°C 4.6°F-15.2°C 65% Calm Calm 4.0 mph6.4 kmh 30.56 in1034.9 mb 0.00 in0.0 mm 0.00 in0.0 mm 0.00 in0.0 mm
09:10 PM 14.2°F-9.9°C 4.6°F-15.2°C 65% 2.0 mph ESE3.2 kmh ESE 3.0 mph4.8 kmh 30.55 in1034.5 mb 0.00 in0.0 mm 0.00 in0.0 mm 0.00 in0.0 mm
09:15 PM 14.3°F-9.8°C 4.7°F-15.2°C 65% 1.0 mph SE1.6 kmh SE 5.0 mph8.0 kmh 30.56 in1034.9 mb 0.00 in0.0 mm 0.00 in0.0 mm 0.00 in0.0 mm
09:20 PM 14.3°F-9.8°C 4.7°F-15.2°C 65% 1.0 mph SE1.6 kmh SE 7.0 mph11.3 kmh 30.55 in1034.5 mb 0.00 in0.0 mm 0.00 in0.0 mm 0.00 in0.0 mm
09:24 PM 14.3°F-9.8°C 4.7°F-15.2°C 65% 1.0 mph ENE1.6 kmh ENE 7.0 mph11.3 kmh 30.55 in1034.5 mb 0.00 in0.0 mm 0.00 in0.0 mm 0.00 in0.0 mm
09:30 PM 14.3°F-9.8°C 4.7°F-15.2°C 65% 3.0 mph SE4.8 kmh SE 3.0 mph4.8 kmh 30.55 in1034.5 mb 0.00 in0.0 mm 0.00 in0.0 mm 0.00 in0.0 mm
09:35 PM 14.3°F-9.8°C 5.0°F-15.0°C 66% 2.0 mph ESE3.2 kmh ESE 6.0 mph9.7 kmh 30.55 in1034.5 mb 0.00 in0.0 mm 0.00 in0.0 mm 0.00 in0.0 mm
09:40 PM 14.4°F-9.8°C 5.1°F-14.9°C 66% 2.0 mph E3.2 kmh E 6.0 mph9.7 kmh 30.54 in1034.2 mb 0.00 in0.0 mm 0.00 in0.0 mm 0.00 in0.0 mm
09:45 PM 14.4°F-9.8°C 5.1°F-14.9°C 66% Calm Calm 5.0 mph8.0 kmh 30.54 in1034.2 mb 0.00 in0.0 mm 0.00 in0.0 mm 0.00 in0.0 mm
09:50 PM 14.5°F-9.7°C 5.2°F-14.9°C 66% 2.0 mph SE3.2 kmh SE 7.0 mph11.3 kmh 30.54 in1034.2 mb 0.00 in0.0 mm 0.00 in0.0 mm 0.00 in0.0 mm
09:55 PM 14.6°F-9.7°C 5.3°F-14.8°C 66% Calm Calm 5.0 mph8.0 kmh 30.54 in1034.2 mb 0.00 in0.0 mm 0.00 in0.0 mm 0.00 in0.0 mm
10:00 PM 14.7°F-9.6°C 5.8°F-14.6°C 67% 7.0 mph SE11.3 kmh SE 7.0 mph11.3 kmh 30.54 in1034.2 mb 0.00 in0.0 mm 0.00 in0.0 mm 0.00 in0.0 mm
10:05 PM 14.9°F-9.5°C 5.6°F-14.7°C 66% 1.0 mph SSE1.6 kmh SSE 5.0 mph8.0 kmh 30.54 in1034.2 mb 0.00 in0.0 mm 0.00 in0.0 mm 0.00 in0.0 mm
10:10 PM 15.1°F-9.4°C 5.8°F-14.6°C 66% 1.0 mph SSE1.6 kmh SSE 4.0 mph6.4 kmh 30.53 in1033.9 mb 0.00 in0.0 mm 0.00 in0.0 mm 0.00 in0.0 mm
10:15 PM 15.3°F-9.3°C 6.0°F-14.4°C 66% 1.0 mph SSE1.6 kmh SSE 5.0 mph8.0 kmh 30.53 in1033.9 mb 0.00 in0.0 mm 0.00 in0.0 mm 0.00 in0.0 mm
10:19 PM 15.4°F-9.2°C 6.1°F-14.4°C 66% 2.0 mph ESE3.2 kmh ESE 3.0 mph4.8 kmh 30.54 in1034.2 mb 0.00 in0.0 mm 0.00 in0.0 mm 0.00 in0.0 mm
10:24 PM 15.5°F-9.2°C 6.2°F-14.3°C 66% 2.0 mph SSE3.2 kmh SSE 6.0 mph9.7 kmh 30.54 in1034.2 mb 0.00 in0.0 mm 0.00 in0.0 mm 0.00 in0.0 mm
10:30 PM 15.6°F-9.1°C 6.3°F-14.3°C 66% Calm Calm 5.0 mph8.0 kmh 30.54 in1034.2 mb 0.00 in0.0 mm 0.00 in0.0 mm 0.00 in0.0 mm
10:35 PM 15.7°F-9.1°C 6.4°F-14.2°C 66% 3.0 mph SSE4.8 kmh SSE 6.0 mph9.7 kmh 30.54 in1034.2 mb 0.00 in0.0 mm 0.00 in0.0 mm 0.00 in0.0 mm
10:40 PM 15.7°F-9.1°C 6.4°F-14.2°C 66% Calm Calm 7.0 mph11.3 kmh 30.54 in1034.2 mb 0.00 in0.0 mm 0.00 in0.0 mm 0.00 in0.0 mm
10:45 PM 15.8°F-9.0°C 6.5°F-14.2°C 66% 6.0 mph E9.7 kmh E 6.0 mph9.7 kmh 30.54 in1034.2 mb 0.00 in0.0 mm 0.00 in0.0 mm 0.00 in0.0 mm
10:50 PM 15.8°F-9.0°C 6.5°F-14.2°C 66% 1.0 mph S1.6 kmh S 4.0 mph6.4 kmh 30.54 in1034.2 mb 0.00 in0.0 mm 0.00 in0.0 mm 0.00 in0.0 mm
10:55 PM 15.8°F-9.0°C 6.5°F-14.2°C 66% 2.0 mph SSE3.2 kmh SSE 4.0 mph6.4 kmh 30.54 in1034.2 mb 0.00 in0.0 mm 0.00 in0.0 mm 0.00 in0.0 mm
11:00 PM 15.9°F-8.9°C 6.6°F-14.1°C 66% 6.0 mph S9.7 kmh S 6.0 mph9.7 kmh 30.53 in1033.9 mb 0.00 in0.0 mm 0.00 in0.0 mm 0.00 in0.0 mm
11:05 PM 16.0°F-8.9°C 6.7°F-14.1°C 66% 1.0 mph SSE1.6 kmh SSE 8.0 mph12.9 kmh 30.54 in1034.2 mb 0.00 in0.0 mm 0.00 in0.0 mm 0.00 in0.0 mm
11:10 PM 16.1°F-8.8°C 6.8°F-14.0°C 66% 2.0 mph SE3.2 kmh SE 4.0 mph6.4 kmh 30.53 in1033.9 mb 0.00 in0.0 mm 0.00 in0.0 mm 0.00 in0.0 mm
11:14 PM 16.1°F-8.8°C 6.8°F-14.0°C 66% 1.0 mph SSE1.6 kmh SSE 7.0 mph11.3 kmh 30.53 in1033.9 mb 0.00 in0.0 mm 0.00 in0.0 mm 0.00 in0.0 mm
11:20 PM 16.2°F-8.8°C 6.9°F-13.9°C 66% 3.0 mph SSE4.8 kmh SSE 5.0 mph8.0 kmh 30.53 in1033.9 mb 0.00 in0.0 mm 0.00 in0.0 mm 0.00 in0.0 mm
11:25 PM 16.2°F-8.8°C 6.5°F-14.2°C 65% Calm Calm 6.0 mph9.7 kmh 30.53 in1033.9 mb 0.00 in0.0 mm 0.00 in0.0 mm 0.00 in0.0 mm
11:30 PM 16.2°F-8.8°C 6.5°F-14.2°C 65% 6.0 mph S9.7 kmh S 7.0 mph11.3 kmh 30.53 in1033.9 mb 0.00 in0.0 mm 0.00 in0.0 mm 0.00 in0.0 mm
11:35 PM 16.2°F-8.8°C 6.5°F-14.2°C 65% 1.0 mph SE1.6 kmh SE 7.0 mph11.3 kmh 30.52 in1033.5 mb 0.00 in0.0 mm 0.00 in0.0 mm 0.00 in0.0 mm
11:40 PM 16.1°F-8.8°C 6.4°F-14.2°C 65% 2.0 mph SE3.2 kmh SE 8.0 mph12.9 kmh 30.51 in1033.2 mb 0.00 in0.0 mm 0.00 in0.0 mm 0.00 in0.0 mm
11:45 PM 16.0°F-8.9°C 6.3°F-14.3°C 65% 4.0 mph S6.4 kmh S 8.0 mph12.9 kmh 30.51 in1033.2 mb 0.00 in0.0 mm 0.00 in0.0 mm 0.00 in0.0 mm
11:50 PM 16.0°F-8.9°C 6.3°F-14.3°C 65% Calm Calm 6.0 mph9.7 kmh 30.51 in1033.2 mb 0.00 in0.0 mm 0.00 in0.0 mm 0.00 in0.0 mm
11:55 PM 15.9°F-8.9°C 6.6°F-14.1°C 66% 1.0 mph SE1.6 kmh SE 6.0 mph9.7 kmh 30.50 in1032.8 mb 0.00 in0.0 mm 0.00 in0.0 mm 0.00 in0.0 mm